createdAt,value
2018-09-10T00:00:07.617Z,5.62
2018-09-10T00:02:35.962Z,4.95
2018-09-10T00:07:38.119Z,4.90
2018-09-10T00:10:06.383Z,4.95
2018-09-10T00:12:34.646Z,5.17
2018-09-10T00:15:03.172Z,5.05
2018-09-10T00:17:31.679Z,5.70
2018-09-10T00:20:00.173Z,5.20
2018-09-10T00:22:28.412Z,4.92
2018-09-10T00:24:56.637Z,5.40
2018-09-10T00:27:25.065Z,5.00
2018-09-10T00:29:53.297Z,5.00
2018-09-10T00:32:21.853Z,5.50
2018-09-10T00:34:50.076Z,4.60
2018-09-10T00:37:18.746Z,4.92
2018-09-10T00:39:47.478Z,4.92
2018-09-10T00:42:15.721Z,5.17
2018-09-10T00:44:43.954Z,5.05
2018-09-10T00:47:12.249Z,4.75
2018-09-10T00:49:40.678Z,4.70
2018-09-10T00:52:11.911Z,5.20
2018-09-10T00:54:43.734Z,5.05
2018-09-10T00:57:12.062Z,4.93
2018-09-10T00:59:41.170Z,4.72
2018-09-10T01:02:09.418Z,5.03
2018-09-10T01:04:38.290Z,4.93
2018-09-10T01:07:06.883Z,4.70
2018-09-10T01:09:35.110Z,4.58
2018-09-10T01:12:03.374Z,4.83
2018-09-10T01:14:38.751Z,5.12
2018-09-10T01:17:07.387Z,5.03
2018-09-10T01:19:35.625Z,4.58
2018-09-10T01:22:03.881Z,4.50
2018-09-10T01:24:32.119Z,4.72
2018-09-10T01:27:00.337Z,4.70
2018-09-10T01:29:28.650Z,4.50
2018-09-10T01:31:57.262Z,4.80
2018-09-10T01:34:30.926Z,4.87
2018-09-10T01:37:00.002Z,4.95
2018-09-10T01:39:29.065Z,5.03
2018-09-10T01:41:57.602Z,5.57
2018-09-10T01:44:25.823Z,5.10
2018-09-10T01:46:54.800Z,5.40
2018-09-10T01:49:23.376Z,4.80
2018-09-10T01:51:51.617Z,5.00
2018-09-10T01:54:20.631Z,5.10
2018-09-10T01:56:48.867Z,5.03
2018-09-10T01:59:17.118Z,5.20
2018-09-10T02:01:45.855Z,5.07
2018-09-10T02:04:14.050Z,4.87
2018-09-10T02:06:42.714Z,4.60
2018-09-10T02:09:10.947Z,4.65
2018-09-10T02:11:39.181Z,5.05
2018-09-10T02:14:07.677Z,5.23
2018-09-10T02:16:36.324Z,5.17
2018-09-10T02:19:05.421Z,5.60
2018-09-10T02:21:33.686Z,4.97
2018-09-10T02:24:01.890Z,4.62
2018-09-10T02:26:30.161Z,4.87
2018-09-10T02:28:58.946Z,4.97
2018-09-10T02:31:27.763Z,5.37
2018-09-10T02:33:56.791Z,5.50
2018-09-10T02:36:25.621Z,5.03
2018-09-10T02:38:53.887Z,5.50
2018-09-10T02:41:22.476Z,5.03
2018-09-10T02:43:50.720Z,4.97
2018-09-10T02:46:18.958Z,5.10
2018-09-10T02:48:47.994Z,4.87
2018-09-10T02:51:16.230Z,5.10
2018-09-10T02:53:45.059Z,5.17
2018-09-10T02:56:13.310Z,5.20
2018-09-10T02:58:41.586Z,4.40
2018-09-10T03:01:09.858Z,5.60
2018-09-10T03:03:38.266Z,5.20
2018-09-10T03:06:07.210Z,5.80
2018-09-10T03:11:17.297Z,5.63
2018-09-10T03:13:45.998Z,5.20
2018-09-10T03:16:14.765Z,5.30
2018-09-10T03:18:43.487Z,5.53
2018-09-10T03:21:11.703Z,5.33
2018-09-10T03:23:39.942Z,5.83
2018-09-10T03:26:08.177Z,5.50
2018-09-10T03:28:36.349Z,5.62
2018-09-10T03:31:11.411Z,5.67
2018-09-10T03:33:39.683Z,5.57
2018-09-10T03:36:08.521Z,5.23
2018-09-10T03:38:36.738Z,5.80
2018-09-10T03:41:05.194Z,4.60
2018-09-10T03:43:33.424Z,5.10
2018-09-10T03:46:01.736Z,4.70
2018-09-10T03:51:04.325Z,5.20
2018-09-10T03:53:32.789Z,5.20
2018-09-10T03:56:01.010Z,5.40
2018-09-10T03:58:29.253Z,4.97
2018-09-10T04:01:04.030Z,5.20
2018-09-10T04:03:32.678Z,5.10
2018-09-10T04:06:01.505Z,5.63
2018-09-10T04:08:29.727Z,5.72
2018-09-10T04:10:58.337Z,5.57
2018-09-10T04:13:26.842Z,5.60
2018-09-10T04:15:55.310Z,5.90
2018-09-10T04:18:23.990Z,5.40
2018-09-10T04:20:52.295Z,5.60
2018-09-10T04:23:20.890Z,4.83
2018-09-10T04:25:49.174Z,5.00
2018-09-10T04:28:17.354Z,5.30
2018-09-10T04:30:45.595Z,5.37
2018-09-10T04:33:14.247Z,5.50
2018-09-10T04:35:48.891Z,5.60
2018-09-10T04:38:17.174Z,5.00
2018-09-10T04:40:46.195Z,5.23
2018-09-10T04:43:14.421Z,5.37
2018-09-10T04:45:42.653Z,5.63
2018-09-10T04:48:10.882Z,5.17
2018-09-10T04:50:39.117Z,5.17
2018-09-10T04:53:07.897Z,4.80
2018-09-10T04:55:36.358Z,4.70
2018-09-10T04:58:04.629Z,5.53
2018-09-10T05:00:32.863Z,5.60
2018-09-10T05:03:01.473Z,5.10
2018-09-10T05:05:30.142Z,5.67
2018-09-10T05:07:58.370Z,5.67
2018-09-10T05:10:26.809Z,5.47
2018-09-10T05:12:55.342Z,5.57
2018-09-10T05:15:23.946Z,5.07
2018-09-10T05:17:52.180Z,5.30
2018-09-10T05:20:20.494Z,5.97
2018-09-10T05:22:48.747Z,5.70
2018-09-10T05:25:17.622Z,6.30
2018-09-10T05:27:45.848Z,5.77
2018-09-10T05:30:14.073Z,6.57
2018-09-10T05:32:42.771Z,6.15
2018-09-10T05:35:11.005Z,6.07
2018-09-10T05:37:39.757Z,5.80
2018-09-10T05:40:09.082Z,6.27
2018-09-10T05:42:37.685Z,5.90
2018-09-10T05:45:06.938Z,6.40
2018-09-10T05:47:35.204Z,6.47
2018-09-10T05:50:03.442Z,6.00
2018-09-10T05:52:32.215Z,6.23
2018-09-10T05:55:00.463Z,6.40
2018-09-10T05:57:29.109Z,6.72
2018-09-10T05:59:57.778Z,6.42
2018-09-10T06:02:26.470Z,6.50
2018-09-10T06:04:54.707Z,6.15
2018-09-10T06:07:23.218Z,7.20
2018-09-10T06:09:51.465Z,6.33
2018-09-10T06:14:54.659Z,6.20
2018-09-10T06:17:23.320Z,7.03
2018-09-10T06:19:51.550Z,6.50
2018-09-10T06:22:20.250Z,6.33
2018-09-10T06:24:48.497Z,6.90
2018-09-10T06:27:16.874Z,6.60
2018-09-10T06:29:46.030Z,6.72
2018-09-10T06:32:14.498Z,6.90
2018-09-10T06:34:42.726Z,6.72
2018-09-10T06:37:11.770Z,7.50
2018-09-10T06:39:40.150Z,7.55
2018-09-10T06:42:08.397Z,7.25
2018-09-10T06:44:36.621Z,7.85
2018-09-10T06:47:04.918Z,7.22
2018-09-10T06:49:33.168Z,7.00
2018-09-10T06:52:01.446Z,7.72
2018-09-10T06:54:30.001Z,7.37
2018-09-10T06:56:58.228Z,7.47
2018-09-10T06:59:26.874Z,8.60
2018-09-10T07:01:55.478Z,8.20
2018-09-10T07:04:23.720Z,7.42
2018-09-10T07:06:52.342Z,8.33
2018-09-10T07:09:20.599Z,8.98
2018-09-10T07:11:49.187Z,9.30
2018-09-10T07:14:17.971Z,8.18
2018-09-10T07:16:46.578Z,8.53
2018-09-10T07:19:14.804Z,9.20
2018-09-10T07:21:43.017Z,8.90
2018-09-10T07:24:11.254Z,8.58
2018-09-10T07:26:39.471Z,9.28
2018-09-10T07:29:08.193Z,8.10
2018-09-10T07:31:36.749Z,8.98
2018-09-10T07:34:05.231Z,9.35
2018-09-10T07:36:33.764Z,11.48
2018-09-10T07:39:10.253Z,9.68
2018-09-10T07:41:38.502Z,8.38
2018-09-10T07:44:07.349Z,8.38
2018-09-10T07:46:35.576Z,9.00
2018-09-10T07:49:03.837Z,8.78
2018-09-10T07:51:32.214Z,7.97
2018-09-10T07:54:00.634Z,8.03
2018-09-10T07:56:28.923Z,8.60
2018-09-10T07:58:57.174Z,7.97
2018-09-10T08:01:25.718Z,7.28
2018-09-10T08:03:54.227Z,8.33
2018-09-10T08:06:22.857Z,8.53
2018-09-10T08:08:51.113Z,6.00
2018-09-10T08:11:19.545Z,7.72
2018-09-10T08:13:48.123Z,7.35
2018-09-10T08:16:16.788Z,7.40
2018-09-10T08:18:45.186Z,7.80
2018-09-10T08:21:13.405Z,7.62
2018-09-10T08:23:41.690Z,5.60
2018-09-10T08:26:09.935Z,6.65
2018-09-10T08:28:38.161Z,5.60
2018-09-10T08:31:19.384Z,5.47
2018-09-10T08:33:48.154Z,7.58
2018-09-10T08:36:17.177Z,7.50
2018-09-10T08:38:45.436Z,6.20
2018-09-10T08:41:13.955Z,6.40
2018-09-10T08:43:42.205Z,6.28
2018-09-10T08:46:10.444Z,6.72
2018-09-10T08:48:38.947Z,6.53
2018-09-10T08:51:07.325Z,6.08
2018-09-10T08:53:36.010Z,6.28
2018-09-10T08:56:04.542Z,6.05
2018-09-10T08:58:32.475Z,5.60
2018-09-10T09:01:04.653Z,5.83
2018-09-10T09:03:33.265Z,4.90
2018-09-10T09:06:02.141Z,6.30
2018-09-10T09:08:30.602Z,4.85
2018-09-10T09:10:59.306Z,4.78
2018-09-10T09:13:28.780Z,5.35
2018-09-10T09:15:57.340Z,4.83
2018-09-10T09:18:25.572Z,4.28
2018-09-10T09:20:53.864Z,5.10
2018-09-10T09:23:22.272Z,4.70
2018-09-10T09:25:50.478Z,5.10
2018-09-10T09:28:18.775Z,4.90
2018-09-10T09:30:47.030Z,4.55
2018-09-10T09:33:15.644Z,5.05
2018-09-10T09:35:55.738Z,3.90
2018-09-10T09:38:29.470Z,5.50
2018-09-10T09:41:03.604Z,4.60
2018-09-10T09:43:37.385Z,4.53
2018-09-10T09:46:08.326Z,8.30
2018-09-10T09:48:37.106Z,5.12
2018-09-10T09:51:05.855Z,19.48
2018-09-10T09:53:34.961Z,3.95
2018-09-10T09:56:03.201Z,4.30
2018-09-10T09:58:31.435Z,4.12
2018-09-10T10:01:07.532Z,3.67
2018-09-10T10:03:41.590Z,3.98
2018-09-10T10:06:10.294Z,3.70
2018-09-10T10:08:38.533Z,4.22
2018-09-10T10:11:07.416Z,3.50
2018-09-10T10:13:36.133Z,4.03
2018-09-10T10:16:04.866Z,9.33
2018-09-10T10:18:33.140Z,4.20
2018-09-10T10:21:01.392Z,12.60
2018-09-10T10:23:29.977Z,27.65
2018-09-10T10:25:58.285Z,3.67
2018-09-10T10:28:26.518Z,3.98
2018-09-10T10:30:54.782Z,3.77
2018-09-10T10:33:23.498Z,3.33
2018-09-10T10:35:57.840Z,4.08
2018-09-10T10:38:26.069Z,3.77
2018-09-10T10:40:54.854Z,3.83
2018-09-10T10:43:23.073Z,3.92
2018-09-10T10:45:51.326Z,5.53
2018-09-10T10:48:19.750Z,5.42
2018-09-10T10:50:48.038Z,3.30
2018-09-10T10:53:16.968Z,3.22
2018-09-10T10:55:45.210Z,2.83
2018-09-10T10:58:14.516Z,3.27
2018-09-10T11:00:42.806Z,4.40
2018-09-10T11:03:11.419Z,3.33
2018-09-10T11:05:40.106Z,2.70
2018-09-10T11:08:08.342Z,2.75
2018-09-10T11:10:36.914Z,2.42
2018-09-10T11:13:05.486Z,2.45
2018-09-10T11:15:34.174Z,2.65
2018-09-10T11:18:02.470Z,2.40
2018-09-10T11:20:30.737Z,2.90
2018-09-10T11:22:59.069Z,2.45
2018-09-10T11:25:27.325Z,2.72
2018-09-10T11:27:55.678Z,2.50
2018-09-10T11:30:23.941Z,8.45
2018-09-10T11:32:52.638Z,2.80
2018-09-10T11:35:20.905Z,4.40
2018-09-10T11:37:49.501Z,2.77
2018-09-10T11:40:18.199Z,2.70
2018-09-10T11:42:46.458Z,2.70
2018-09-10T11:45:15.169Z,2.72
2018-09-10T11:47:43.610Z,2.33
2018-09-10T11:50:11.871Z,2.50
2018-09-10T11:52:40.514Z,2.42
2018-09-10T11:55:08.797Z,2.55
2018-09-10T11:57:37.445Z,2.47
2018-09-10T12:00:05.714Z,2.85
2018-09-10T12:02:34.392Z,2.77
2018-09-10T12:05:02.654Z,2.90
2018-09-10T12:07:31.201Z,2.70
2018-09-10T12:10:04.657Z,2.87
2018-09-10T12:12:33.100Z,2.67
2018-09-10T12:15:01.731Z,2.60
2018-09-10T12:17:29.997Z,3.05
2018-09-10T12:19:58.266Z,2.90
2018-09-10T12:22:26.689Z,2.87
2018-09-10T12:24:54.926Z,2.75
2018-09-10T12:27:23.670Z,2.87
2018-09-10T12:29:53.150Z,3.00
2018-09-10T12:32:21.475Z,2.62
2018-09-10T12:34:49.674Z,2.47
2018-09-10T12:37:18.218Z,3.00
2018-09-10T12:39:46.837Z,2.95
2018-09-10T12:42:15.079Z,2.42
2018-09-10T12:44:43.644Z,2.77
2018-09-10T12:47:12.366Z,2.70
2018-09-10T12:49:40.655Z,2.67
2018-09-10T12:52:13.778Z,2.70
2018-09-10T12:54:42.020Z,2.30
2018-09-10T12:57:10.312Z,3.00
2018-09-10T12:59:39.018Z,3.02
2018-09-10T13:02:07.758Z,2.47
2018-09-10T13:04:36.002Z,2.47
2018-09-10T13:07:04.586Z,2.85
2018-09-10T13:09:32.820Z,2.33
2018-09-10T13:12:01.519Z,2.50
2018-09-10T13:14:30.253Z,2.52
2018-09-10T13:16:58.767Z,2.37
2018-09-10T13:19:27.042Z,2.60
2018-09-10T13:21:55.311Z,3.05
2018-09-10T13:24:23.840Z,2.55
2018-09-10T13:26:52.078Z,2.75
2018-09-10T13:29:20.862Z,2.98
2018-09-10T13:31:49.405Z,2.85
2018-09-10T13:34:17.680Z,3.15
2018-09-10T13:36:46.387Z,3.27
2018-09-10T13:39:14.853Z,2.80
2018-09-10T13:41:43.161Z,2.85
2018-09-10T13:44:11.717Z,3.12
2018-09-10T13:46:42.183Z,2.98
2018-09-10T13:49:10.414Z,2.87
2018-09-10T13:51:38.641Z,2.40
2018-09-10T13:54:07.131Z,3.15
2018-09-10T13:56:35.326Z,3.27
2018-09-10T13:59:03.570Z,2.50
2018-09-10T14:01:32.317Z,2.42
2018-09-10T14:04:01.010Z,1.90
2018-09-10T14:06:29.493Z,2.00
2018-09-10T14:08:57.733Z,2.52
2018-09-10T14:11:26.299Z,2.58
2018-09-10T14:13:54.846Z,2.00
2018-09-10T14:18:46.538Z,2.20
2018-09-10T14:21:14.841Z,2.20
2018-09-10T14:23:43.806Z,2.30
2018-09-10T14:26:12.089Z,2.75
2018-09-10T14:28:40.328Z,2.20
2018-09-10T14:31:08.869Z,3.05
2018-09-10T14:33:37.114Z,2.35
2018-09-10T14:36:05.570Z,6.10
2018-09-10T14:38:33.812Z,2.20
2018-09-10T14:41:02.438Z,2.50
2018-09-10T14:43:30.691Z,2.33
2018-09-10T14:45:58.922Z,2.60
2018-09-10T14:48:27.342Z,2.58
2018-09-10T14:50:55.571Z,2.33
2018-09-10T14:53:24.217Z,2.80
2018-09-10T14:55:52.463Z,2.25
2018-09-10T14:58:26.679Z,2.08
2018-09-10T15:00:59.542Z,2.40
2018-09-10T15:03:27.950Z,2.42
2018-09-10T15:05:57.586Z,2.22
2018-09-10T15:08:25.826Z,2.20
2018-09-10T15:10:54.513Z,2.60
2018-09-10T15:13:22.970Z,2.30
2018-09-10T15:15:51.701Z,2.17
2018-09-10T15:18:20.253Z,2.10
2018-09-10T15:20:48.437Z,1.95
2018-09-10T15:23:16.681Z,1.90
2018-09-10T15:25:44.929Z,2.17
2018-09-10T15:28:13.177Z,1.95
2018-09-10T15:30:41.542Z,2.20
2018-09-10T15:33:10.670Z,2.00
2018-09-10T15:35:38.946Z,1.80
2018-09-10T15:38:07.599Z,1.95
2018-09-10T15:40:36.211Z,1.98
2018-09-10T15:43:04.518Z,1.95
2018-09-10T15:45:32.746Z,1.90
2018-09-10T15:48:01.508Z,2.00
2018-09-10T15:50:29.766Z,2.08
2018-09-10T15:52:58.214Z,2.00
2018-09-10T15:55:26.441Z,2.22
2018-09-10T15:57:54.683Z,1.80
2018-09-10T16:00:22.960Z,1.70
2018-09-10T16:02:51.561Z,1.90
2018-09-10T16:05:20.277Z,2.00
2018-09-10T16:07:48.468Z,1.77
2018-09-10T16:10:17.137Z,1.42
2018-09-10T16:12:45.686Z,1.80
2018-09-10T16:15:14.310Z,1.90
2018-09-10T16:17:42.785Z,1.70
2018-09-10T16:20:11.065Z,2.00
2018-09-10T16:22:39.386Z,1.52
2018-09-10T16:28:17.677Z,1.92
2018-09-10T16:30:46.121Z,2.20
2018-09-10T16:33:14.366Z,1.90
2018-09-10T17:00:57.328Z,2.45
2018-09-10T17:03:25.653Z,2.37
2018-09-10T17:05:54.539Z,2.00
2018-09-10T17:08:22.797Z,2.35
2018-09-10T17:10:51.083Z,2.67
2018-09-10T17:13:19.477Z,2.40
2018-09-10T17:15:47.802Z,2.17
2018-09-10T17:18:16.250Z,2.60
2018-09-10T17:20:44.569Z,2.52
2018-09-10T17:23:13.002Z,2.62
2018-09-10T17:25:41.735Z,2.40
2018-09-10T17:28:10.070Z,2.55
2018-09-10T17:30:38.359Z,2.60
2018-09-10T17:33:06.689Z,2.75
2018-09-10T17:35:35.022Z,2.60
2018-09-10T17:38:04.215Z,2.40
2018-09-10T17:40:33.582Z,2.40
2018-09-10T17:43:02.665Z,2.20
2018-09-10T17:45:30.934Z,2.60
2018-09-10T17:47:59.212Z,2.60
2018-09-10T17:50:32.777Z,2.50
2018-09-10T17:53:01.757Z,2.95
2018-09-10T17:55:30.369Z,3.27
2018-09-10T17:57:58.644Z,3.00
2018-09-10T18:00:26.939Z,3.47
2018-09-10T18:02:55.482Z,3.20
2018-09-10T18:05:23.800Z,2.72
2018-09-10T18:07:52.222Z,3.17
2018-09-10T18:10:20.773Z,3.00
2018-09-10T18:12:49.611Z,3.00
2018-09-10T18:15:17.949Z,3.30
2018-09-10T18:17:46.209Z,3.25
2018-09-10T18:20:14.515Z,2.92
2018-09-10T18:22:42.878Z,2.90
2018-09-10T18:25:11.235Z,3.00
2018-09-10T18:27:39.574Z,3.00
2018-09-10T18:30:07.931Z,3.05
2018-09-10T18:32:36.209Z,3.00
2018-09-10T18:35:04.763Z,3.37
2018-09-10T18:40:27.009Z,4.28
2018-09-10T18:42:55.354Z,3.50
2018-09-10T18:45:23.687Z,3.70
2018-09-10T18:47:52.041Z,3.52
2018-09-10T18:50:20.377Z,3.40
2018-09-10T18:52:48.966Z,3.90
2018-09-10T18:55:17.285Z,3.90
2018-09-10T18:57:45.748Z,3.70
2018-09-10T19:00:14.115Z,3.75
2018-09-10T19:02:42.377Z,3.67
2018-09-10T19:05:10.810Z,3.80
2018-09-10T19:07:39.189Z,3.75
2018-09-10T19:10:08.088Z,4.10
2018-09-10T19:12:36.422Z,3.80
2018-09-10T19:15:05.105Z,4.05
2018-09-10T19:17:33.450Z,3.47
2018-09-10T19:20:02.200Z,3.17
2018-09-10T19:22:30.481Z,3.45
2018-09-10T19:24:59.014Z,3.30
2018-09-10T19:27:27.444Z,3.77
2018-09-10T19:29:55.766Z,3.30
2018-09-10T19:32:24.378Z,3.00
2018-09-10T19:34:53.974Z,3.20
2018-09-10T19:37:22.305Z,3.08
2018-09-10T19:39:52.018Z,3.30
2018-09-10T19:42:20.689Z,3.25
2018-09-10T19:44:49.023Z,3.50
2018-09-10T19:47:17.333Z,3.00
2018-09-10T19:49:45.807Z,3.08
2018-09-10T19:52:14.364Z,2.87
2018-09-10T19:54:42.658Z,3.22
2018-09-10T19:57:10.904Z,3.42
2018-09-10T19:59:39.377Z,3.45
2018-09-10T20:02:07.622Z,3.33
2018-09-10T20:04:35.954Z,3.70
2018-09-10T20:07:04.262Z,3.58
2018-09-10T20:09:32.588Z,3.40
2018-09-10T20:12:00.866Z,3.80
2018-09-10T20:14:29.684Z,3.80
2018-09-10T20:16:58.139Z,4.17
2018-09-10T20:19:26.414Z,3.90
2018-09-10T20:21:54.764Z,4.00
2018-09-10T20:24:23.078Z,3.70
2018-09-10T20:26:51.909Z,4.03
2018-09-10T20:29:27.527Z,3.90
2018-09-10T20:31:56.213Z,4.12
2018-09-10T20:34:24.466Z,4.00
2018-09-10T20:36:53.225Z,4.05
2018-09-10T20:39:22.038Z,4.28
2018-09-10T20:41:50.684Z,3.70
2018-09-10T20:44:19.483Z,4.25
2018-09-10T20:46:47.785Z,3.70
2018-09-10T20:49:16.054Z,3.90
2018-09-10T20:51:44.705Z,3.70
2018-09-10T20:54:12.969Z,3.90
2018-09-10T20:56:41.225Z,4.30
2018-09-10T20:59:09.494Z,3.50
2018-09-10T21:01:37.772Z,4.00
2018-09-10T21:04:06.126Z,4.55
2018-09-10T21:06:34.478Z,3.95
2018-09-10T21:09:02.834Z,4.00
2018-09-10T21:11:31.082Z,3.87
2018-09-10T21:13:59.374Z,3.62
2018-09-10T21:16:28.114Z,3.95
2018-09-10T21:18:56.416Z,3.67
2018-09-10T21:21:25.029Z,3.95
2018-09-10T21:23:53.757Z,3.95
2018-09-10T21:26:22.149Z,3.75
2018-09-10T21:28:50.778Z,3.98
2018-09-10T21:31:19.048Z,4.15
2018-09-10T21:33:47.311Z,3.95
2018-09-10T21:36:15.897Z,4.12
2018-09-10T21:38:44.464Z,3.83
2018-09-10T21:41:13.145Z,4.33
2018-09-10T21:43:41.434Z,4.10
2018-09-10T21:46:09.718Z,4.30
2018-09-10T21:48:38.018Z,4.12
2018-09-10T21:51:06.942Z,4.10
2018-09-10T21:53:35.556Z,3.72
2018-09-10T21:56:03.843Z,3.87
2018-09-10T21:58:32.125Z,3.80
2018-09-10T22:01:00.393Z,4.08
2018-09-10T22:03:29.561Z,4.03
2018-09-10T22:05:57.974Z,4.37
2018-09-10T22:08:26.827Z,4.22
2018-09-10T22:10:55.138Z,4.42
2018-09-10T22:13:23.415Z,3.83
2018-09-10T22:15:52.409Z,4.10
2018-09-10T22:18:20.684Z,4.08
2018-09-10T22:20:50.057Z,4.10
2018-09-10T22:23:18.329Z,4.00
2018-09-10T22:25:46.593Z,4.37
2018-09-10T22:28:15.101Z,4.20
2018-09-10T22:30:43.519Z,3.87
2018-09-10T22:33:11.973Z,4.22
2018-09-10T22:35:40.618Z,4.08
2018-09-10T22:38:09.495Z,3.47
2018-09-10T22:43:12.245Z,3.52
2018-09-10T22:45:41.125Z,3.95
2018-09-10T22:48:09.432Z,3.45
2018-09-10T22:53:12.448Z,3.62
2018-09-10T22:55:40.734Z,3.37
2018-09-10T22:58:09.232Z,3.55
2018-09-10T23:00:37.512Z,3.47
2018-09-10T23:03:06.201Z,3.40
2018-09-10T23:05:34.893Z,3.50
2018-09-10T23:08:03.148Z,3.25
2018-09-10T23:10:31.491Z,3.50
2018-09-10T23:12:59.773Z,3.40
2018-09-10T23:15:28.182Z,3.37
2018-09-10T23:17:56.801Z,3.65
2018-09-10T23:20:25.146Z,3.50
2018-09-10T23:22:54.097Z,3.85
2018-09-10T23:25:22.807Z,4.30
2018-09-10T23:27:51.074Z,3.60
2018-09-10T23:30:19.398Z,3.60
2018-09-10T23:32:48.047Z,3.90
2018-09-10T23:35:16.697Z,3.40
2018-09-10T23:37:52.561Z,3.70
2018-09-10T23:40:21.046Z,3.90
2018-09-10T23:42:49.602Z,3.52
2018-09-10T23:45:17.858Z,3.87
2018-09-10T23:47:46.866Z,3.40
2018-09-10T23:50:15.151Z,3.37
2018-09-10T23:52:43.878Z,3.52
2018-09-10T23:55:12.137Z,3.72
2018-09-10T23:57:41.389Z,3.58
